Time;durP1;ratioP1;P1;durP2;ratioP2;P2;SDS_P1;SDS_P2;PMS_P1;PMS_P2;Temp;Humidity;BMP_temperature;BMP_pressure;BME280_temperature;BME280_humidity;BME280_pressure;Samples;Min_cycle;Max_cycle;Signal;HPM_P1;HPM_P2
2022/12/31 00:00:09;;;;;;;;;;;11.50;99.90;;;;;;5084910;28;1149;-71
2022/12/31 00:02:35;;;;;;;;;;;11.40;99.90;;;;;;5088064;28;1902;-71
2022/12/31 00:05:00;;;;;;;;;;;11.40;99.90;;;;;;5090662;28;1116;-71
2022/12/31 00:07:26;;;;;;;;;;;11.40;99.90;;;;;;5087076;28;1163;-71
2022/12/31 00:09:52;;;;;;;;;;;11.40;99.90;;;;;;5069937;28;1165;-71
2022/12/31 00:12:17;;;;;;;;;;;11.40;99.90;;;;;;5089686;28;1023;-71
2022/12/31 00:14:43;;;;;;;;;;;11.40;99.90;;;;;;5091209;28;1119;-71
2022/12/31 00:17:09;;;;;;;;;;;11.40;99.90;;;;;;5072088;28;1358;-71
2022/12/31 00:19:34;;;;;;;;;;;11.40;99.90;;;;;;5074996;28;1228;-71
2022/12/31 00:22:00;;;;;;;;;;;11.40;99.90;;;;;;5076418;28;1906;-71
2022/12/31 00:24:29;;;;;;;;;;;11.40;99.90;;;;;;5090858;28;1108;-71
2022/12/31 00:26:55;;;;;;;;;;;11.40;99.90;;;;;;5086348;28;1563;-71
2022/12/31 00:29:21;;;;;;;;;;;11.50;99.90;;;;;;5098241;28;1119;-71
2022/12/31 00:31:47;;;;;;;;;;;11.50;99.90;;;;;;5087521;28;1115;-71
2022/12/31 00:34:12;;;;;;;;;;;11.60;99.90;;;;;;5082704;28;1100;-71
2022/12/31 00:36:38;;;;;;;;;;;11.60;99.90;;;;;;5068223;28;1191;-71
2022/12/31 00:39:05;;;;;;;;;;;11.70;99.90;;;;;;5082970;28;1270;-71
2022/12/31 00:41:31;;;;;;;;;;;11.70;99.90;;;;;;5079890;28;1910;-71
2022/12/31 00:43:57;;;;;;;;;;;11.70;99.90;;;;;;5088010;28;1137;-71
2022/12/31 00:46:23;;;;;;;;;;;11.70;99.90;;;;;;5087352;28;1180;-71
2022/12/31 00:48:49;;;;;;;;;;;11.70;99.90;;;;;;5090017;28;1170;-71
2022/12/31 00:51:16;;;;;;;;;;;11.70;99.90;;;;;;5090602;28;1084;-71
2022/12/31 00:53:42;;;;;;;;;;;11.70;99.90;;;;;;5078926;28;1126;-70
2022/12/31 00:56:10;;;;;;;;;;;11.70;99.90;;;;;;5087512;28;1036;-71
2022/12/31 00:58:36;;;;;;;;;;;11.70;99.90;;;;;;5090454;28;1087;-71
2022/12/31 01:01:07;;;;;;;;;;;11.70;99.90;;;;;;5070565;28;1918;-72
2022/12/31 01:03:32;;;;;;;;;;;11.70;99.90;;;;;;5089552;28;1225;-71
2022/12/31 01:05:58;;;;;;;;;;;11.70;99.90;;;;;;5069312;28;1120;-71
2022/12/31 01:08:24;;;;;;;;;;;11.70;99.90;;;;;;5089291;28;1134;-71
2022/12/31 01:13:34;;;;;;;;;;;11.70;99.90;;;;;;5089932;28;1151;-71
2022/12/31 01:16:07;;;;;;;;;;;11.60;99.90;;;;;;5088984;28;1358;-71
2022/12/31 01:18:33;;;;;;;;;;;11.60;99.90;;;;;;5089832;28;1369;-71
2022/12/31 01:21:01;;;;;;;;;;;11.60;99.90;;;;;;5063985;28;1913;-71
2022/12/31 01:23:26;;;;;;;;;;;11.50;99.90;;;;;;5070297;28;1121;-71
2022/12/31 01:25:52;;;;;;;;;;;11.60;99.90;;;;;;5070603;28;1367;-71
2022/12/31 01:28:18;;;;;;;;;;;11.50;99.90;;;;;;5088234;28;1025;-71
2022/12/31 01:30:43;;;;;;;;;;;11.50;99.90;;;;;;5088916;28;1143;-71
2022/12/31 01:33:09;;;;;;;;;;;11.50;99.90;;;;;;5089632;28;1119;-71
2022/12/31 01:35:35;;;;;;;;;;;11.50;99.90;;;;;;5089760;28;1091;-71
2022/12/31 01:38:01;;;;;;;;;;;11.50;99.90;;;;;;5079385;28;1281;-71
2022/12/31 01:40:26;;;;;;;;;;;11.40;99.90;;;;;;5071567;28;942;-71
2022/12/31 01:42:52;;;;;;;;;;;11.40;99.90;;;;;;5088879;28;1965;-71
2022/12/31 01:45:18;;;;;;;;;;;11.30;99.90;;;;;;5089075;28;1147;-71
2022/12/31 01:47:45;;;;;;;;;;;11.30;99.90;;;;;;5086759;28;1220;-70
2022/12/31 01:50:20;;;;;;;;;;;11.30;99.90;;;;;;5088921;28;1103;-71
2022/12/31 01:52:47;;;;;;;;;;;11.20;99.90;;;;;;5089080;28;1115;-71
2022/12/31 01:55:23;;;;;;;;;;;11.20;99.90;;;;;;5082228;28;1232;-71
2022/12/31 01:57:52;;;;;;;;;;;11.20;99.90;;;;;;5086622;28;1207;-70
2022/12/31 02:00:18;;;;;;;;;;;11.20;99.90;;;;;;5088872;28;1183;-71
2022/12/31 02:02:44;;;;;;;;;;;11.10;99.90;;;;;;5071056;28;1942;-70
2022/12/31 02:05:13;;;;;;;;;;;11.20;99.90;;;;;;5072373;28;1042;-71
2022/12/31 02:07:38;;;;;;;;;;;11.20;99.90;;;;;;5087849;28;1187;-71
2022/12/31 02:10:04;;;;;;;;;;;11.20;99.90;;;;;;5089274;28;1174;-71
2022/12/31 02:12:30;;;;;;;;;;;11.30;99.90;;;;;;5084877;28;1131;-71
2022/12/31 02:14:56;;;;;;;;;;;11.40;99.90;;;;;;5081050;28;1172;-71
2022/12/31 02:17:21;;;;;;;;;;;11.30;99.90;;;;;;5088868;28;1310;-71
2022/12/31 02:19:54;;;;;;;;;;;11.30;99.90;;;;;;5088326;28;1263;-71
2022/12/31 02:22:28;;;;;;;;;;;11.30;99.90;;;;;;5083172;28;1929;-71
2022/12/31 02:25:01;;;;;;;;;;;11.20;99.90;;;;;;5089055;28;1067;-71
2022/12/31 02:27:34;;;;;;;;;;;11.20;99.90;;;;;;5088186;28;1581;-71
2022/12/31 02:30:04;;;;;;;;;;;11.10;99.90;;;;;;5086907;28;1091;-71
2022/12/31 02:32:30;;;;;;;;;;;11.10;99.90;;;;;;5078210;28;1180;-71
2022/12/31 02:34:59;;;;;;;;;;;11.10;99.90;;;;;;5088617;28;1155;-71
2022/12/31 02:37:26;;;;;;;;;;;11.10;99.90;;;;;;5088491;28;1313;-71
2022/12/31 02:39:52;;;;;;;;;;;11.00;99.90;;;;;;5085878;28;1108;-71
2022/12/31 02:42:18;;;;;;;;;;;11.00;99.90;;;;;;5092787;28;1922;-71
2022/12/31 02:44:43;;;;;;;;;;;11.00;99.90;;;;;;5092564;28;997;-71
2022/12/31 02:47:09;;;;;;;;;;;11.00;99.90;;;;;;5092125;28;1123;-71
2022/12/31 02:49:42;;;;;;;;;;;11.00;99.90;;;;;;5060900;28;1088;-71
2022/12/31 02:52:14;;;;;;;;;;;11.00;99.90;;;;;;5074092;28;1150;-71
2022/12/31 02:54:46;;;;;;;;;;;10.90;99.90;;;;;;5091623;28;1222;-71
2022/12/31 02:57:25;;;;;;;;;;;11.00;99.90;;;;;;5067152;28;1185;-71
2022/12/31 03:02:42;;;;;;;;;;;10.90;99.90;;;;;;5090465;28;2044;-71
2022/12/31 03:05:08;;;;;;;;;;;10.90;99.90;;;;;;5092600;28;1128;-71
2022/12/31 03:07:34;;;;;;;;;;;10.90;99.90;;;;;;5090011;28;1189;-71
2022/12/31 03:10:00;;;;;;;;;;;10.90;99.90;;;;;;5074510;28;1152;-71
2022/12/31 03:12:45;;;;;;;;;;;10.90;99.90;;;;;;5092314;28;1190;-71
2022/12/31 03:15:19;;;;;;;;;;;10.90;99.90;;;;;;5082768;28;1092;-71
2022/12/31 03:17:46;;;;;;;;;;;10.90;99.90;;;;;;5092154;28;1604;-71
2022/12/31 03:22:56;;;;;;;;;;;10.90;99.90;;;;;;5073129;28;1910;-70
2022/12/31 03:25:32;;;;;;;;;;;11.00;99.90;;;;;;5089781;28;1071;-70
2022/12/31 03:27:58;;;;;;;;;;;11.00;99.90;;;;;;5091829;28;1577;-70
2022/12/31 03:30:24;;;;;;;;;;;11.00;99.90;;;;;;5091492;28;1155;-71
2022/12/31 03:32:50;;;;;;;;;;;11.00;99.90;;;;;;5064531;28;1225;-71
2022/12/31 03:35:18;;;;;;;;;;;11.00;99.90;;;;;;5090968;28;1140;-71
2022/12/31 03:37:43;;;;;;;;;;;10.90;99.90;;;;;;5086973;28;1301;-71
2022/12/31 03:40:10;;;;;;;;;;;10.90;99.90;;;;;;5092025;28;1182;-71
2022/12/31 03:42:36;;;;;;;;;;;10.90;99.90;;;;;;5069499;28;1979;-71
2022/12/31 03:45:02;;;;;;;;;;;10.90;99.90;;;;;;5056429;28;1913;-71
2022/12/31 03:47:28;;;;;;;;;;;10.90;99.90;;;;;;5090500;28;1124;-71
2022/12/31 03:49:53;;;;;;;;;;;10.90;99.90;;;;;;5087307;28;1071;-71
2022/12/31 03:52:19;;;;;;;;;;;10.90;99.90;;;;;;5083428;28;1183;-71
2022/12/31 03:54:44;;;;;;;;;;;10.80;99.90;;;;;;5073181;28;1641;-71
2022/12/31 03:57:11;;;;;;;;;;;10.70;99.90;;;;;;5072531;28;1104;-71
2022/12/31 03:59:37;;;;;;;;;;;10.70;99.90;;;;;;5067248;28;1156;-71
2022/12/31 04:02:03;;;;;;;;;;;10.70;99.90;;;;;;5082127;28;1963;-71
2022/12/31 04:04:29;;;;;;;;;;;10.70;99.90;;;;;;5071185;28;1218;-71
2022/12/31 04:06:55;;;;;;;;;;;10.60;99.90;;;;;;5091096;28;1084;-71
2022/12/31 04:09:20;;;;;;;;;;;10.60;99.90;;;;;;5060891;28;1136;-71
2022/12/31 04:11:46;;;;;;;;;;;10.60;99.90;;;;;;5090736;28;1076;-71
2022/12/31 04:14:12;;;;;;;;;;;10.50;99.90;;;;;;5091077;28;1092;-71
2022/12/31 04:16:38;;;;;;;;;;;10.50;99.90;;;;;;5085791;28;1319;-71
2022/12/31 04:19:03;;;;;;;;;;;10.50;99.90;;;;;;5088880;28;1275;-71
2022/12/31 04:21:29;;;;;;;;;;;10.40;99.90;;;;;;5090402;28;1897;-71
2022/12/31 04:23:55;;;;;;;;;;;10.40;99.90;;;;;;5090894;28;1132;-71
2022/12/31 04:26:20;;;;;;;;;;;10.40;99.90;;;;;;5082083;28;1431;-71
2022/12/31 04:28:46;;;;;;;;;;;10.50;99.90;;;;;;5090641;28;1131;-71
2022/12/31 04:31:12;;;;;;;;;;;10.50;99.90;;;;;;5090791;28;1064;-71
2022/12/31 04:33:37;;;;;;;;;;;10.50;99.90;;;;;;5089813;28;1174;-71
2022/12/31 04:36:03;;;;;;;;;;;10.50;99.90;;;;;;5084258;28;1165;-71
2022/12/31 04:38:29;;;;;;;;;;;10.40;99.90;;;;;;5091016;28;1151;-71
2022/12/31 04:43:39;;;;;;;;;;;10.40;99.90;;;;;;5070150;28;856;-71
2022/12/31 04:46:05;;;;;;;;;;;10.30;99.90;;;;;;5067238;28;1129;-71
2022/12/31 04:48:32;;;;;;;;;;;10.30;99.90;;;;;;5090653;28;1185;-71
2022/12/31 04:50:57;;;;;;;;;;;10.30;99.90;;;;;;5072335;28;1143;-71
2022/12/31 04:53:23;;;;;;;;;;;10.20;99.90;;;;;;5081696;28;1111;-71
2022/12/31 04:55:49;;;;;;;;;;;10.20;99.90;;;;;;5089987;28;1068;-71
2022/12/31 04:58:15;;;;;;;;;;;10.20;99.90;;;;;;5090019;28;1107;-71
2022/12/31 05:00:40;;;;;;;;;;;10.20;99.90;;;;;;5081401;28;1174;-71
2022/12/31 05:03:06;;;;;;;;;;;10.10;99.90;;;;;;5090090;28;1964;-71
2022/12/31 05:05:37;;;;;;;;;;;10.10;99.90;;;;;;5089637;28;1171;-71
2022/12/31 05:08:02;;;;;;;;;;;10.00;99.90;;;;;;5071232;28;1124;-70
2022/12/31 05:10:28;;;;;;;;;;;10.00;99.90;;;;;;5081281;28;1186;-71
2022/12/31 05:12:54;;;;;;;;;;;10.00;99.90;;;;;;5089558;28;1183;-70
2022/12/31 05:15:19;;;;;;;;;;;10.00;99.90;;;;;;5089396;28;1046;-70
2022/12/31 05:17:45;;;;;;;;;;;10.00;99.90;;;;;;5089929;28;1473;-70
2022/12/31 05:20:10;;;;;;;;;;;10.00;99.90;;;;;;5068645;28;1142;-70
2022/12/31 05:22:36;;;;;;;;;;;10.00;99.90;;;;;;5089260;28;1969;-71
2022/12/31 05:25:02;;;;;;;;;;;10.10;99.90;;;;;;5071872;28;973;-70
2022/12/31 05:27:29;;;;;;;;;;;10.10;99.90;;;;;;5083948;28;1564;-70
2022/12/31 05:29:55;;;;;;;;;;;10.10;99.90;;;;;;5084385;28;1117;-70
2022/12/31 05:32:21;;;;;;;;;;;10.10;99.90;;;;;;5089696;28;1147;-70
2022/12/31 05:34:46;;;;;;;;;;;10.10;99.90;;;;;;5089766;28;1084;-71
2022/12/31 05:37:12;;;;;;;;;;;10.00;99.90;;;;;;5088696;28;1220;-71
2022/12/31 05:39:37;;;;;;;;;;;10.10;99.90;;;;;;5054458;28;1152;-70
2022/12/31 05:42:03;;;;;;;;;;;10.10;99.90;;;;;;5088707;28;1985;-71
2022/12/31 05:44:29;;;;;;;;;;;10.10;99.90;;;;;;5089187;28;1008;-71
2022/12/31 05:46:54;;;;;;;;;;;10.10;99.90;;;;;;5070899;28;1173;-70
2022/12/31 05:49:20;;;;;;;;;;;10.10;99.90;;;;;;5088521;28;1167;-71
2022/12/31 05:51:45;;;;;;;;;;;10.10;99.90;;;;;;5089246;28;1123;-70
2022/12/31 05:54:11;;;;;;;;;;;10.10;99.90;;;;;;5083443;28;1200;-70
2022/12/31 05:56:37;;;;;;;;;;;10.10;99.90;;;;;;5088440;28;1067;-71
2022/12/31 05:59:02;;;;;;;;;;;10.10;99.90;;;;;;5083647;28;1119;-71
2022/12/31 06:01:28;;;;;;;;;;;10.10;99.90;;;;;;5080488;28;1961;-71
2022/12/31 06:03:54;;;;;;;;;;;10.10;99.90;;;;;;5064317;28;1254;-71
2022/12/31 06:06:19;;;;;;;;;;;10.10;99.90;;;;;;5089348;28;1095;-71
2022/12/31 06:08:49;;;;;;;;;;;10.10;99.90;;;;;;5089365;28;1147;-71
2022/12/31 06:11:14;;;;;;;;;;;10.20;99.90;;;;;;5085749;28;1196;-71
2022/12/31 06:13:41;;;;;;;;;;;10.20;99.90;;;;;;5084242;28;1199;-71
2022/12/31 06:16:07;;;;;;;;;;;10.30;99.90;;;;;;5089212;28;1362;-71
2022/12/31 06:18:33;;;;;;;;;;;10.30;99.90;;;;;;5088235;28;1286;-71
2022/12/31 06:20:59;;;;;;;;;;;10.30;99.90;;;;;;5080099;28;1117;-71
2022/12/31 06:23:24;;;;;;;;;;;10.20;99.90;;;;;;5084131;28;1906;-71
2022/12/31 06:25:50;;;;;;;;;;;10.20;99.90;;;;;;5088106;28;1104;-72
2022/12/31 06:28:15;;;;;;;;;;;9.90;99.90;;;;;;5088927;28;1644;-71
2022/12/31 06:30:41;;;;;;;;;;;9.70;99.90;;;;;;5063310;28;1134;-71
2022/12/31 06:33:07;;;;;;;;;;;9.60;99.90;;;;;;5087994;28;1154;-71
2022/12/31 06:35:32;;;;;;;;;;;9.60;99.90;;;;;;5089109;28;1135;-71
2022/12/31 06:37:58;;;;;;;;;;;9.70;99.90;;;;;;5087787;28;1241;-71
2022/12/31 06:40:24;;;;;;;;;;;9.70;99.90;;;;;;5069669;28;1139;-72
2022/12/31 06:42:49;;;;;;;;;;;9.80;99.90;;;;;;5088603;28;1913;-72
2022/12/31 06:45:15;;;;;;;;;;;9.80;99.90;;;;;;5088942;28;1115;-72
2022/12/31 06:47:40;;;;;;;;;;;9.70;99.90;;;;;;5079136;28;1155;-72
2022/12/31 06:50:06;;;;;;;;;;;9.70;99.90;;;;;;5088520;28;1104;-72
2022/12/31 06:52:32;;;;;;;;;;;9.70;99.90;;;;;;5088037;28;1131;-71
2022/12/31 06:54:58;;;;;;;;;;;9.60;99.90;;;;;;5088400;28;1143;-70
2022/12/31 06:57:24;;;;;;;;;;;9.60;99.90;;;;;;5081430;28;1189;-70
2022/12/31 06:59:50;;;;;;;;;;;9.70;99.90;;;;;;5087955;28;1111;-71
2022/12/31 07:02:22;;;;;;;;;;;9.80;99.90;;;;;;5070186;28;1914;-71
2022/12/31 07:04:47;;;;;;;;;;;9.80;99.90;;;;;;5082773;28;1443;-71
2022/12/31 07:07:13;;;;;;;;;;;9.80;99.90;;;;;;5083431;28;1124;-71
2022/12/31 07:09:43;;;;;;;;;;;9.80;99.90;;;;;;5070427;28;1155;-71
2022/12/31 07:12:19;;;;;;;;;;;9.80;99.90;;;;;;5069963;28;1155;-71
2022/12/31 07:14:48;;;;;;;;;;;9.80;99.90;;;;;;5084008;28;1125;-71
2022/12/31 07:17:21;;;;;;;;;;;9.80;99.90;;;;;;5088498;28;1291;-71
2022/12/31 07:19:46;;;;;;;;;;;9.70;99.90;;;;;;5088372;28;1432;-71
2022/12/31 07:22:14;;;;;;;;;;;9.70;99.90;;;;;;5085893;28;1963;-71
2022/12/31 07:24:40;;;;;;;;;;;9.70;99.90;;;;;;5084245;28;1124;-71
2022/12/31 07:27:06;;;;;;;;;;;9.70;99.90;;;;;;5091954;28;1344;-71
2022/12/31 07:29:42;;;;;;;;;;;9.80;99.90;;;;;;5091523;28;1119;-71
2022/12/31 07:32:17;;;;;;;;;;;9.80;99.90;;;;;;5078924;28;1201;-71
2022/12/31 07:34:49;;;;;;;;;;;9.90;99.90;;;;;;5091164;28;1092;-71
2022/12/31 07:37:34;;;;;;;;;;;9.90;99.90;;;;;;5092108;28;1225;-71
2022/12/31 07:39:59;;;;;;;;;;;10.00;99.90;;;;;;5087160;28;1162;-71
2022/12/31 07:42:31;;;;;;;;;;;10.00;99.90;;;;;;5082813;28;1914;-71
2022/12/31 07:45:17;;;;;;;;;;;9.90;99.90;;;;;;5073827;28;1013;-71
2022/12/31 07:47:44;;;;;;;;;;;9.90;99.90;;;;;;5091367;28;1212;-71
2022/12/31 07:50:13;;;;;;;;;;;9.90;99.90;;;;;;5085384;28;1177;-71
2022/12/31 07:52:39;;;;;;;;;;;9.90;99.90;;;;;;5091624;28;1080;-71
2022/12/31 07:55:04;;;;;;;;;;;9.90;99.90;;;;;;5088118;28;1116;-71
2022/12/31 07:57:33;;;;;;;;;;;9.90;99.90;;;;;;5068553;28;1226;-71
2022/12/31 08:00:08;;;;;;;;;;;9.80;99.90;;;;;;5084039;28;1223;-71
2022/12/31 08:03:00;;;;;;;;;;;9.80;99.90;;;;;;5084479;28;1914;-71
2022/12/31 08:05:29;;;;;;;;;;;9.80;99.90;;;;;;5085457;28;1252;-71
2022/12/31 08:08:01;;;;;;;;;;;9.70;99.90;;;;;;5084392;28;1086;-71
2022/12/31 08:10:30;;;;;;;;;;;9.80;99.90;;;;;;5090299;28;1080;-71
2022/12/31 08:12:59;;;;;;;;;;;9.70;99.90;;;;;;5091362;28;1135;-71
2022/12/31 08:15:25;;;;;;;;;;;9.80;99.90;;;;;;5087677;28;979;-71
2022/12/31 08:17:51;;;;;;;;;;;9.80;99.90;;;;;;5088953;28;1599;-71
2022/12/31 08:20:17;;;;;;;;;;;9.70;99.90;;;;;;5091009;28;1401;-71
2022/12/31 08:22:52;;;;;;;;;;;9.70;99.90;;;;;;5090962;28;1960;-71
2022/12/31 08:25:24;;;;;;;;;;;9.70;99.90;;;;;;5071421;28;1175;-71
2022/12/31 08:27:59;;;;;;;;;;;9.70;99.90;;;;;;5083299;28;1556;-71
2022/12/31 08:30:28;;;;;;;;;;;9.70;99.90;;;;;;5070203;28;1018;-71
2022/12/31 08:32:57;;;;;;;;;;;9.80;99.90;;;;;;5081114;28;1234;-71
2022/12/31 08:35:26;;;;;;;;;;;9.90;99.90;;;;;;5090623;28;1107;-71
2022/12/31 08:37:52;;;;;;;;;;;9.90;99.90;;;;;;5086172;28;1205;-71
2022/12/31 08:40:24;;;;;;;;;;;9.90;99.90;;;;;;5090414;28;1159;-71
2022/12/31 08:42:56;;;;;;;;;;;10.00;99.90;;;;;;5080995;28;1969;-71
2022/12/31 08:45:22;;;;;;;;;;;10.00;99.90;;;;;;5090068;28;1163;-71
2022/12/31 08:47:52;;;;;;;;;;;10.10;99.90;;;;;;5090358;28;1047;-71
2022/12/31 08:50:18;;;;;;;;;;;10.10;99.90;;;;;;5090098;28;1262;-71
2022/12/31 08:52:44;;;;;;;;;;;10.20;99.90;;;;;;5077809;28;1126;-71
2022/12/31 08:55:12;;;;;;;;;;;10.30;99.90;;;;;;5070226;28;1338;-71
2022/12/31 08:57:42;;;;;;;;;;;10.30;99.90;;;;;;5082462;28;3234;-71
2022/12/31 09:00:10;;;;;;;;;;;10.40;99.90;;;;;;5073312;28;3577;-71
2022/12/31 09:02:40;;;;;;;;;;;10.40;99.90;;;;;;5078915;28;3093;-71
2022/12/31 09:05:19;;;;;;;;;;;10.40;99.90;;;;;;5077274;28;1181;-71
2022/12/31 09:07:51;;;;;;;;;;;10.40;99.90;;;;;;5079576;28;1156;-71
2022/12/31 09:10:19;;;;;;;;;;;10.50;99.90;;;;;;5080613;28;1302;-71
2022/12/31 09:12:53;;;;;;;;;;;10.50;99.90;;;;;;5081932;28;1204;-71
2022/12/31 09:15:26;;;;;;;;;;;10.60;99.90;;;;;;5089060;28;1163;-71
2022/12/31 09:17:52;;;;;;;;;;;10.60;99.90;;;;;;5081315;28;1571;-71
2022/12/31 09:20:24;;;;;;;;;;;10.80;99.90;;;;;;5085393;28;1298;-71
2022/12/31 09:22:51;;;;;;;;;;;10.70;99.90;;;;;;5090031;28;1910;-72
2022/12/31 09:25:17;;;;;;;;;;;10.80;99.90;;;;;;5089351;28;1186;-71
2022/12/31 09:27:50;;;;;;;;;;;10.80;99.90;;;;;;5088050;28;1161;-71
2022/12/31 09:30:16;;;;;;;;;;;10.90;99.90;;;;;;5071917;28;1197;-71
2022/12/31 09:33:01;;;;;;;;;;;11.00;99.90;;;;;;5074399;28;3277;-71
2022/12/31 09:35:34;;;;;;;;;;;11.00;99.90;;;;;;5073421;28;1421;-71
2022/12/31 09:38:01;;;;;;;;;;;11.20;99.90;;;;;;5076923;28;3049;-71
2022/12/31 09:40:27;;;;;;;;;;;11.30;99.90;;;;;;5068387;28;1110;-70
2022/12/31 09:42:58;;;;;;;;;;;11.30;99.90;;;;;;5071020;28;1937;-71
2022/12/31 09:45:27;;;;;;;;;;;11.40;99.90;;;;;;5073177;28;1479;-71
2022/12/31 09:47:56;;;;;;;;;;;11.50;99.90;;;;;;5054370;28;1231;-70
2022/12/31 09:50:24;;;;;;;;;;;11.50;99.90;;;;;;5067659;28;3118;-70
2022/12/31 09:52:57;;;;;;;;;;;11.60;99.90;;;;;;5053301;28;1175;-69
2022/12/31 09:55:30;;;;;;;;;;;11.70;99.90;;;;;;5074246;28;1453;-69
2022/12/31 09:57:59;;;;;;;;;;;11.70;99.90;;;;;;5078366;28;1208;-69
2022/12/31 10:00:43;;;;;;;;;;;11.80;99.90;;;;;;5077741;28;1396;-69
2022/12/31 10:03:15;;;;;;;;;;;11.90;99.90;;;;;;5073864;28;1979;-69
2022/12/31 10:05:42;;;;;;;;;;;11.80;99.90;;;;;;5079762;28;1391;-69
2022/12/31 10:08:07;;;;;;;;;;;11.90;99.90;;;;;;5080334;28;1255;-69
2022/12/31 10:10:36;;;;;;;;;;;11.90;99.90;;;;;;5065021;28;1238;-70
2022/12/31 10:13:09;;;;;;;;;;;11.90;99.90;;;;;;5074893;28;1383;-70
2022/12/31 10:15:47;;;;;;;;;;;12.00;99.90;;;;;;5072831;28;1472;-70
2022/12/31 10:18:14;;;;;;;;;;;12.10;99.90;;;;;;5071488;28;1421;-70
2022/12/31 10:20:39;;;;;;;;;;;12.10;99.90;;;;;;5056784;28;1292;-70
2022/12/31 10:23:16;;;;;;;;;;;12.10;99.90;;;;;;5056279;28;1918;-70
2022/12/31 10:25:42;;;;;;;;;;;12.10;99.90;;;;;;5067130;28;1415;-70
2022/12/31 10:28:14;;;;;;;;;;;12.30;99.90;;;;;;5078729;28;1621;-71
2022/12/31 10:30:45;;;;;;;;;;;12.30;99.90;;;;;;5059833;28;1135;-71
2022/12/31 10:33:20;;;;;;;;;;;12.50;99.90;;;;;;5079353;28;1180;-71
2022/12/31 10:35:52;;;;;;;;;;;12.60;99.90;;;;;;5077306;28;1385;-71
2022/12/31 10:38:21;;;;;;;;;;;12.60;99.90;;;;;;5059921;28;1403;-71
2022/12/31 10:41:22;;;;;;;;;;;12.70;99.90;;;;;;5072030;28;1209;-71
2022/12/31 10:44:00;;;;;;;;;;;12.80;99.90;;;;;;5077917;28;1950;-71
2022/12/31 10:46:34;;;;;;;;;;;12.90;99.90;;;;;;5072766;28;1139;-71
2022/12/31 10:49:06;;;;;;;;;;;13.00;99.90;;;;;;5070628;28;1166;-71
2022/12/31 10:51:42;;;;;;;;;;;13.00;99.90;;;;;;5084242;28;1079;-71
2022/12/31 10:54:23;;;;;;;;;;;13.10;99.90;;;;;;5082816;28;1350;-71
2022/12/31 10:56:49;;;;;;;;;;;13.20;99.90;;;;;;5078747;28;1191;-71
2022/12/31 10:59:15;;;;;;;;;;;13.10;99.90;;;;;;5084111;28;3382;-70
2022/12/31 11:01:55;;;;;;;;;;;13.20;99.90;;;;;;5082206;28;2990;-71
2022/12/31 11:04:47;;;;;;;;;;;13.20;99.90;;;;;;5075141;28;3078;-71
2022/12/31 11:07:15;;;;;;;;;;;13.40;99.90;;;;;;5075617;28;1194;-71
2022/12/31 11:09:42;;;;;;;;;;;13.30;99.90;;;;;;5079153;28;1400;-71
2022/12/31 11:12:18;;;;;;;;;;;13.50;99.90;;;;;;5058646;28;1185;-71
2022/12/31 11:14:47;;;;;;;;;;;13.50;99.90;;;;;;5080250;28;1301;-71
2022/12/31 11:17:20;;;;;;;;;;;13.50;99.90;;;;;;5076751;28;3097;-71
2022/12/31 11:19:56;;;;;;;;;;;13.50;99.90;;;;;;5076152;28;1338;-71
2022/12/31 11:22:31;;;;;;;;;;;13.50;99.90;;;;;;5075667;28;1975;-71
2022/12/31 11:25:10;;;;;;;;;;;13.50;99.90;;;;;;5076575;28;1192;-71
2022/12/31 11:27:36;;;;;;;;;;;13.50;99.90;;;;;;5060300;28;1221;-71
2022/12/31 11:30:17;;;;;;;;;;;13.50;99.90;;;;;;5072315;28;1416;-71
2022/12/31 11:32:49;;;;;;;;;;;13.50;99.90;;;;;;5078031;28;1472;-71
2022/12/31 11:35:37;;;;;;;;;;;13.50;99.90;;;;;;5075935;28;1263;-70
2022/12/31 11:38:08;;;;;;;;;;;13.50;99.90;;;;;;5087118;28;1552;-71
2022/12/31 11:40:38;;;;;;;;;;;13.70;99.90;;;;;;5075347;28;1146;-71
2022/12/31 11:43:11;;;;;;;;;;;13.60;99.90;;;;;;5075456;28;1963;-71
2022/12/31 11:45:45;;;;;;;;;;;13.60;99.90;;;;;;5082389;28;3363;-71
2022/12/31 11:48:28;;;;;;;;;;;13.60;99.90;;;;;;5073673;28;3013;-71
2022/12/31 11:51:21;;;;;;;;;;;13.60;99.90;;;;;;5076013;28;3122;-71
2022/12/31 11:54:07;;;;;;;;;;;13.70;99.90;;;;;;5077136;28;1342;-70
2022/12/31 11:56:40;;;;;;;;;;;13.60;99.90;;;;;;5078760;28;1969;-71
2022/12/31 11:59:08;;;;;;;;;;;13.60;99.90;;;;;;5084139;28;1298;-71
2022/12/31 12:01:46;;;;;;;;;;;13.60;99.90;;;;;;5085421;28;1910;-71
2022/12/31 12:04:11;;;;;;;;;;;13.50;99.90;;;;;;5066712;28;3171;-71
2022/12/31 12:06:39;;;;;;;;;;;13.50;99.90;;;;;;5077926;28;3563;-71
2022/12/31 12:09:06;;;;;;;;;;;13.50;99.90;;;;;;5076807;28;1004;-71
2022/12/31 12:11:34;;;;;;;;;;;13.50;99.90;;;;;;5077242;28;3311;-71
2022/12/31 12:14:00;;;;;;;;;;;13.40;99.90;;;;;;5080571;28;1228;-71
2022/12/31 12:16:26;;;;;;;;;;;13.40;99.90;;;;;;5079920;28;1303;-72
2022/12/31 12:19:03;;;;;;;;;;;13.40;99.90;;;;;;5078409;28;1402;-71
2022/12/31 12:21:29;;;;;;;;;;;13.50;99.90;;;;;;5072290;28;1967;-71
2022/12/31 12:23:56;;;;;;;;;;;13.40;99.90;;;;;;5070847;28;2713;-71
2022/12/31 12:26:26;;;;;;;;;;;13.30;99.90;;;;;;5074771;28;3243;-71
2022/12/31 12:28:52;;;;;;;;;;;13.40;99.90;;;;;;5077022;28;1096;-71
2022/12/31 12:31:19;;;;;;;;;;;13.30;99.90;;;;;;5090433;28;1040;-72
2022/12/31 12:33:46;;;;;;;;;;;13.30;99.90;;;;;;5078016;28;1119;-72
2022/12/31 12:36:13;;;;;;;;;;;13.40;99.90;;;;;;5090455;28;1115;-71
2022/12/31 12:38:39;;;;;;;;;;;13.50;99.90;;;;;;5076754;28;1092;-72
2022/12/31 12:41:08;;;;;;;;;;;13.40;99.90;;;;;;5065817;28;1155;-72
2022/12/31 12:43:35;;;;;;;;;;;13.40;99.90;;;;;;5083697;28;3178;-72
2022/12/31 12:46:03;;;;;;;;;;;13.40;99.90;;;;;;5072796;28;2974;-71
2022/12/31 12:48:36;;;;;;;;;;;13.40;99.90;;;;;;5081214;28;3432;-72
2022/12/31 12:51:12;;;;;;;;;;;13.40;99.90;;;;;;5073359;28;1192;-72
2022/12/31 12:53:37;;;;;;;;;;;13.40;99.90;;;;;;5080245;28;1158;-72
2022/12/31 12:56:06;;;;;;;;;;;13.30;99.90;;;;;;5089836;28;1312;-72
2022/12/31 12:58:41;;;;;;;;;;;13.40;99.90;;;;;;5084888;28;1096;-72
2022/12/31 13:01:17;;;;;;;;;;;13.40;99.90;;;;;;5069940;28;1105;-72
2022/12/31 13:03:43;;;;;;;;;;;13.40;99.90;;;;;;5090199;28;1909;-72
2022/12/31 13:06:18;;;;;;;;;;;13.30;99.90;;;;;;5088910;28;1182;-72
2022/12/31 13:08:56;;;;;;;;;;;13.30;99.90;;;;;;5087830;28;1188;-72
2022/12/31 13:11:31;;;;;;;;;;;13.30;99.90;;;;;;5090242;28;1187;-72
2022/12/31 13:13:58;;;;;;;;;;;13.30;99.90;;;;;;5070694;28;1092;-72
2022/12/31 13:16:25;;;;;;;;;;;13.30;99.90;;;;;;5084391;28;1331;-72
2022/12/31 13:18:53;;;;;;;;;;;13.30;99.90;;;;;;5086476;28;1291;-72
2022/12/31 13:21:40;;;;;;;;;;;13.20;99.90;;;;;;5070644;28;1043;-72
2022/12/31 13:24:14;;;;;;;;;;;13.20;99.90;;;;;;5072156;28;1101;-72
2022/12/31 13:26:44;;;;;;;;;;;13.10;99.90;;;;;;5080368;28;3252;-72
2022/12/31 13:29:14;;;;;;;;;;;13.10;99.90;;;;;;5073673;28;1239;-72
2022/12/31 13:31:41;;;;;;;;;;;13.10;99.90;;;;;;5062246;28;3191;-72
2022/12/31 13:34:12;;;;;;;;;;;13.20;99.90;;;;;;5074586;28;1200;-71
2022/12/31 13:36:40;;;;;;;;;;;13.20;99.90;;;;;;5083737;28;1352;-71
2022/12/31 13:39:09;;;;;;;;;;;13.00;99.90;;;;;;5074913;28;1298;-72
2022/12/31 13:41:41;;;;;;;;;;;13.00;99.90;;;;;;5081642;28;1910;-72
2022/12/31 13:44:07;;;;;;;;;;;12.70;99.90;;;;;;5076840;28;3037;-72
2022/12/31 13:46:34;;;;;;;;;;;12.60;99.90;;;;;;5070024;28;1143;-73
2022/12/31 13:49:03;;;;;;;;;;;12.50;99.90;;;;;;5078964;28;1249;-72
2022/12/31 13:51:40;;;;;;;;;;;12.40;99.90;;;;;;5079104;28;1169;-74
2022/12/31 13:54:19;;;;;;;;;;;12.40;99.90;;;;;;5071985;28;1248;-73
2022/12/31 13:56:47;;;;;;;;;;;12.30;99.90;;;;;;5069653;28;1285;-73
2022/12/31 13:59:15;;;;;;;;;;;12.30;99.90;;;;;;5071413;28;1294;-73
2022/12/31 14:01:46;;;;;;;;;;;12.30;99.90;;;;;;5074118;28;1911;-73
2022/12/31 14:04:11;;;;;;;;;;;12.20;99.90;;;;;;5085715;28;1189;-72
2022/12/31 14:06:48;;;;;;;;;;;12.20;99.90;;;;;;5070632;28;969;-72
2022/12/31 14:09:18;;;;;;;;;;;12.20;99.90;;;;;;5084743;28;1251;-72
2022/12/31 14:11:50;;;;;;;;;;;12.20;99.90;;;;;;5081579;28;1065;-73
2022/12/31 14:14:24;;;;;;;;;;;12.10;99.90;;;;;;5089097;28;1111;-72
2022/12/31 14:17:01;;;;;;;;;;;12.10;99.90;;;;;;5087769;28;1112;-72
2022/12/31 14:19:36;;;;;;;;;;;12.10;99.90;;;;;;5082964;28;1271;-72
2022/12/31 14:22:04;;;;;;;;;;;12.10;99.90;;;;;;5089280;28;2025;-72
2022/12/31 14:24:39;;;;;;;;;;;12.00;99.90;;;;;;5088581;28;1084;-71
2022/12/31 14:27:08;;;;;;;;;;;12.00;99.90;;;;;;5083364;28;1141;-72
2022/12/31 14:29:43;;;;;;;;;;;12.00;99.90;;;;;;5046038;28;1114;-72
2022/12/31 14:32:21;;;;;;;;;;;12.00;99.90;;;;;;5079139;28;1087;-71
2022/12/31 14:34:59;;;;;;;;;;;12.00;99.90;;;;;;5092821;28;1154;-70
2022/12/31 14:37:39;;;;;;;;;;;12.00;99.90;;;;;;5083470;28;1185;-69
2022/12/31 14:40:24;;;;;;;;;;;12.00;99.90;;;;;;5092003;28;1069;-70
2022/12/31 14:42:50;;;;;;;;;;;12.10;99.90;;;;;;5074130;28;2014;-69
2022/12/31 14:45:27;;;;;;;;;;;12.10;99.90;;;;;;5079949;28;3224;-69
2022/12/31 14:47:56;;;;;;;;;;;12.10;99.90;;;;;;5077076;28;3090;-69
2022/12/31 14:50:25;;;;;;;;;;;12.00;99.90;;;;;;5079083;28;3205;-70
2022/12/31 14:52:52;;;;;;;;;;;12.00;99.90;;;;;;5073871;28;1205;-71